Flight Track Log - Related Links

Times and Time Zones

All times are in EDT time to prevent confusion due to time zone crossing. See the UCA4772 flight status page for this flight to view local times or setup timezone preferences in your user account.

Time Position Orientation Groundspeed Altitude Reporting Facility
EDT Latitude Longitude Course Direction KTS MPH feet Rate Location/Type
Mon 01:43:10 PM 39.1833 -76.7500 336° Northwest 159 183 2,000  Level Potomac TRACON
Mon 01:44:10 PM 39.1833 -76.8000 270° West 183 211 3,400 1,000 Climbing Potomac TRACON
Mon 01:45:04 PM 39.2167 -76.8667 303° West 207 238 3,900 263 Climbing Potomac TRACON
Mon 01:46:04 PM 39.2333 -76.9500 285° West 244 281 3,900 381 Level Potomac TRACON
Mon 01:47:10 PM 39.2667 -77.0333 297° West 248 285 4,700 905 Climbing Potomac TRACON
Mon 01:48:00 PM 39.3825 -77.1141 336° Northwest  Level Estimated
Mon 01:48:10 PM 39.3000 -77.1000 303° West 215 247 5,800  Level Potomac TRACON
Mon 01:49:10 PM 39.3167 -77.1833 285° West 223 257 6,600 793 Climbing Potomac TRACON
Mon 01:50:11 PM 39.3500 -77.2500 303° West 229 264 7,400 793 Climbing Potomac TRACON
Mon 01:51:11 PM 39.4167 -77.2833 339° North 239 275 8,200 711 Climbing Potomac TRACON
Mon 01:53:25 PM 39.5317 -77.3781 328° Northwest 237 273 9,700 708 Climbing Washington Center
Mon 01:54:26 PM 39.5914 -77.4200 332° Northwest 237 273 10,500 807 Climbing Washington Center
Mon 01:55:24 PM 39.6469 -77.4644 328° Northwest 237 273 11,300 814 Climbing Washington Center
Mon 01:56:24 PM 39.6667 -77.5406 289° West 218 251 12,100 793 Climbing Washington Center
Mon 01:57:25 PM 39.6883 -77.6111 292° West 213 245 12,900 744 Climbing Washington Center
Mon 01:58:25 PM 39.7103 -77.6819 292° West 213 245 13,600 721 Climbing Washington Center
Mon 02:00:28 PM 39.7594 -77.8375 292° West 216 249 15,100 649 Climbing Cleveland Center
Mon 02:01:30 PM 39.7825 -77.9128 292° West 219 252 15,600 581 Climbing Cleveland Center
Mon 02:02:32 PM 39.8058 -77.9881 292° West 222 255 16,300 629 Climbing Cleveland Center
Mon 02:03:34 PM 39.8283 -78.0647 291° West 225 259 16,900 677 Climbing Cleveland Center
Mon 02:04:36 PM 39.8694 -78.1311 309° West 236 272 17,700 726 Climbing Cleveland Center
Mon 02:05:38 PM 39.9158 -78.2097 308° West 230 265 18,400 576 Climbing Cleveland Center
Mon 02:06:41 PM 39.9536 -78.2742 307° West 229 264 18,900 481 Climbing Cleveland Center
Mon 02:08:00 PM 40.0064 -78.3623 308° West  Level FlightAware Approximate
Mon 02:08:45 PM 40.0317 -78.4050 308° West 230 265 19,900  Level Cleveland Center
Mon 02:09:47 PM 40.0708 -78.4694 308° West 229 264 20,400 532 Climbing Cleveland Center
Mon 02:10:49 PM 40.1172 -78.5486 307° West 229 264 21,000 532 Climbing Cleveland Center
Mon 02:11:51 PM 40.1558 -78.6144 308° West 229 264 21,500 484 Climbing Cleveland Center
Mon 02:12:53 PM 40.1936 -78.6778 308° West 226 260 22,000 484 Climbing Cleveland Center
Mon 02:13:55 PM 40.2308 -78.7450 306° West 229 264 22,500 480 Climbing Cleveland Center
Mon 02:14:58 PM 40.2681 -78.8067 308° West 220 253 23,000 484 Climbing Cleveland Center
Mon 02:15:59 PM 40.3047 -78.8686 308° West 217 250 23,500 488 Climbing Cleveland Center
Mon 02:17:01 PM 40.3478 -78.9436 307° West 216 249 24,000 242 Climbing Cleveland Center
Mon 02:18:03 PM 40.3844 -79.0075 307° West 219 252 24,000  Level Cleveland Center
Mon 02:19:05 PM 40.4239 -79.0747 308° West 230 265 24,000  Level Cleveland Center
Mon 02:20:07 PM 40.4647 -79.1436 308° West 239 275 24,000 -48 Level Cleveland Center
Mon 02:21:10 PM 40.5036 -79.2131 306° West 237 273 23,900 -48 Descending Cleveland Center
Mon 02:22:12 PM 40.5511 -79.2942 308° West 235 270 23,900 48 Level Cleveland Center
Mon 02:23:14 PM 40.5856 -79.3539 307° West 241 277 24,000 48 Climbing Cleveland Center
Mon 02:24:16 PM 40.6328 -79.4353 307° West 237 273 24,000  Level Cleveland Center
Mon 02:25:18 PM 40.6717 -79.5047 306° West 238 274 24,000 -48 Level Cleveland Center
Mon 02:26:20 PM 40.7111 -79.5722 308° West 235 270 23,900  Descending Cleveland Center
Mon 02:27:22 PM 40.7500 -79.6414 307° West 237 273 24,000 48 Climbing Cleveland Center
Mon 02:28:24 PM 40.7889 -79.7092 307° West 234 269 24,000 -242 Level Cleveland Center
Mon 02:29:26 PM 40.8364 -79.7931 307° West 238 274 23,500 -532 Descending Cleveland Center
Mon 02:30:28 PM 40.8783 -79.8672 307° West 252 290 22,900 -581 Descending Cleveland Center
Mon 02:31:30 PM 40.9217 -79.9431 307° West 258 297 22,300 -726 Descending Cleveland Center
Mon 02:32:32 PM 40.9653 -80.0197 307° West 261 300 21,400 -919 Descending Cleveland Center
Mon 02:33:34 PM 41.0083 -80.0956 307° West 259 298 20,400 -1,065 Descending Cleveland Center
Mon 02:34:36 PM 41.0597 -80.1869 307° West 258 297 19,200 -1,065 Descending Cleveland Center
Mon 02:35:38 PM 41.1022 -80.2628 307° West 258 297 18,200 -919 Descending Cleveland Center
Mon 02:36:40 PM 41.1464 -80.3403 307° West 263 303 17,300 -968 Descending Cleveland Center
Mon 02:37:42 PM 41.1906 -80.4231 305° West 262 302 16,200 -624 Descending Cleveland Center
Mon 02:38:45 PM 41.2350 -80.5042 306° West 270 311 16,000 -144 Descending Cleveland Center
Mon 02:39:47 PM 41.2797 -80.5819 307° West 264 304 15,900 -435 Descending Cleveland Center
Mon 02:40:49 PM 41.3239 -80.6639 306° West 270 311 15,100 -968 Descending Cleveland Center
Mon 02:41:51 PM 41.3661 -80.7683 298° West 271 312 13,900 -1,059 Descending Cleveland Center
Mon 02:42:48 PM 41.3956 -80.8475 296° West 261 300 13,000 -968 Descending Cleveland Center
Mon 02:42:53 PM 41.3992 -80.8550 303° West 261 300 12,900 -1,000 Descending Cleveland Center
Mon 02:43:18 PM 41.4147 -80.8922 299° West 256 295 12,500 -968 Descending Cleveland Center
Mon 02:43:55 PM 41.4319 -80.9403 296° West 258 297 11,900 -1,111 Descending Cleveland Center
Mon 02:44:12 PM 41.4439 -80.9717 297° West 256 295 11,500 -968 Descending Cleveland Center
Mon 02:44:57 PM 41.4542 -81.0272 284° West 248 285 10,900 -984 Descending Cleveland Center
Mon 02:45:13 PM 41.4553 -81.0600 273° West 237 273 10,500 -968 Descending Cleveland Center
Mon 02:45:59 PM 41.4556 -81.1161 270° West 241 277 9,900 -982 Descending Cleveland Center
Mon 02:46:08 PM 41.4567 -81.1411 273° West 238 274 9,600 -968 Descending Cleveland Center
Mon 02:47:01 PM 41.4600 -81.2072 274° West 243 280 8,900 -1,000 Descending Cleveland Center
Mon 02:47:20 PM 41.4622 -81.2450 275° West 242 278 8,400 -968 Descending Cleveland Center
Mon 02:48:03 PM 41.4650 -81.2950 274° West 240 276 7,900 -984 Descending Cleveland Center
Mon 02:48:21 PM 41.4675 -81.3294 276° West 233 268 7,400 -1,161 Descending Cleveland Center
Mon 02:49:05 PM 41.4708 -81.3953 274° West 233 268 6,700 -984 Descending Cleveland Center
Mon 02:49:22 PM 41.4725 -81.4169 276° West 232 267 6,400 -1,091 Descending Cleveland Center
Mon 02:50:22 PM 41.4767 -81.5097 273° West 232 267 5,300 -991 Descending Cleveland Center
Mon 02:51:17 PM 41.4828 -81.5831 276° West 233 268 4,500 -764 Descending Cleveland Center
Mon 02:52:12 PM 41.4844 -81.6547 272° West 234 269 3,900 -727 Descending Cleveland Center
Mon 02:52:23 PM 41.4861 -81.6842 274° West 238 274 3,700 -484 Descending Cleveland Center
Mon 02:53:14 PM 41.4847 -81.7367 268° West 222 255 3,400 -411 Descending Cleveland Center
Mon 02:53:36 PM 41.4706 -81.7628 234° Southwest 147 169 3,200 -935 Descending Cleveland Center
Mon 02:54:31 PM 41.4486 -81.7953 228° Southwest 119 137 2,200 -1,000 Descending Cleveland Center
Mon 02:55:18 PM 41.4328 -81.8186 228° Southwest 131 151 1,500 -900 Descending Cleveland Center
Mon 02:55:31 PM 41.4292 -81.8258 236° Southwest 111 128 1,300 -677 Descending Cleveland Center
Mon 02:56:20 PM 41.4131 -81.8494 228° Southwest 115 132 800 -612 Descending Cleveland Center

Login

Don't have an account? Register now (free) for customized features, flight alerts, and more!